sensor_id;sensor_type;location;lat;lon;timestamp;P1;durP1;ratioP1;P2;durP2;ratioP2
27412;SDS011;14871;52.702;5.230;2023-06-10T00:01:27;10.18;;;5.32;;
27412;SDS011;14871;52.702;5.230;2023-06-10T00:03:53;9.18;;;5.18;;
27412;SDS011;14871;52.702;5.230;2023-06-10T00:06:19;8.25;;;6.15;;
27412;SDS011;14871;52.702;5.230;2023-06-10T00:08:46;10.55;;;5.47;;
27412;SDS011;14871;52.702;5.230;2023-06-10T00:11:12;9.95;;;5.45;;
27412;SDS011;14871;52.702;5.230;2023-06-10T00:13:38;11.52;;;5.75;;
27412;SDS011;14871;52.702;5.230;2023-06-10T00:16:05;8.80;;;5.63;;
27412;SDS011;14871;52.702;5.230;2023-06-10T00:18:31;10.57;;;5.75;;
27412;SDS011;14871;52.702;5.230;2023-06-10T00:20:57;10.82;;;5.82;;
27412;SDS011;14871;52.702;5.230;2023-06-10T00:23:28;7.82;;;5.78;;
27412;SDS011;14871;52.702;5.230;2023-06-10T00:25:56;10.05;;;5.88;;
27412;SDS011;14871;52.702;5.230;2023-06-10T00:28:23;11.48;;;5.38;;
27412;SDS011;14871;52.702;5.230;2023-06-10T00:30:48;9.73;;;5.95;;
27412;SDS011;14871;52.702;5.230;2023-06-10T00:33:14;7.95;;;5.90;;
27412;SDS011;14871;52.702;5.230;2023-06-10T00:35:40;11.98;;;5.40;;
27412;SDS011;14871;52.702;5.230;2023-06-10T00:38:05;9.27;;;5.18;;
27412;SDS011;14871;52.702;5.230;2023-06-10T00:40:33;10.32;;;5.28;;
27412;SDS011;14871;52.702;5.230;2023-06-10T00:43:03;7.88;;;5.40;;
27412;SDS011;14871;52.702;5.230;2023-06-10T00:45:29;9.10;;;5.82;;
27412;SDS011;14871;52.702;5.230;2023-06-10T00:47:55;8.15;;;5.38;;
27412;SDS011;14871;52.702;5.230;2023-06-10T00:50:21;9.63;;;5.40;;
27412;SDS011;14871;52.702;5.230;2023-06-10T00:52:47;11.30;;;5.03;;
27412;SDS011;14871;52.702;5.230;2023-06-10T00:55:13;11.38;;;5.93;;
27412;SDS011;14871;52.702;5.230;2023-06-10T00:57:41;9.20;;;5.05;;
27412;SDS011;14871;52.702;5.230;2023-06-10T01:00:10;10.18;;;5.57;;
27412;SDS011;14871;52.702;5.230;2023-06-10T01:02:37;9.73;;;5.28;;
27412;SDS011;14871;52.702;5.230;2023-06-10T01:05:03;9.50;;;5.25;;
27412;SDS011;14871;52.702;5.230;2023-06-10T01:07:50;8.93;;;5.30;;
27412;SDS011;14871;52.702;5.230;2023-06-10T01:10:37;10.55;;;5.50;;
27412;SDS011;14871;52.702;5.230;2023-06-10T01:13:11;10.30;;;5.13;;
27412;SDS011;14871;52.702;5.230;2023-06-10T01:15:38;7.72;;;5.10;;
27412;SDS011;14871;52.702;5.230;2023-06-10T01:18:05;12.88;;;5.55;;
27412;SDS011;14871;52.702;5.230;2023-06-10T01:20:36;7.40;;;5.13;;
27412;SDS011;14871;52.702;5.230;2023-06-10T01:23:05;8.05;;;5.38;;
27412;SDS011;14871;52.702;5.230;2023-06-10T01:25:31;13.35;;;5.78;;
27412;SDS011;14871;52.702;5.230;2023-06-10T01:33:35;8.15;;;4.90;;
27412;SDS011;14871;52.702;5.230;2023-06-10T01:36:04;9.77;;;5.70;;
27412;SDS011;14871;52.702;5.230;2023-06-10T01:38:30;8.20;;;5.68;;
27412;SDS011;14871;52.702;5.230;2023-06-10T01:41:01;9.88;;;5.40;;
27412;SDS011;14871;52.702;5.230;2023-06-10T01:43:31;11.70;;;5.82;;
27412;SDS011;14871;52.702;5.230;2023-06-10T01:45:58;8.50;;;5.28;;
27412;SDS011;14871;52.702;5.230;2023-06-10T01:48:24;11.65;;;5.65;;
27412;SDS011;14871;52.702;5.230;2023-06-10T01:50:49;8.40;;;5.95;;
27412;SDS011;14871;52.702;5.230;2023-06-10T01:53:15;13.48;;;5.72;;
27412;SDS011;14871;52.702;5.230;2023-06-10T01:55:40;9.85;;;6.07;;
27412;SDS011;14871;52.702;5.230;2023-06-10T01:58:06;9.52;;;5.90;;
27412;SDS011;14871;52.702;5.230;2023-06-10T02:00:32;9.65;;;6.20;;
27412;SDS011;14871;52.702;5.230;2023-06-10T02:02:57;10.35;;;5.63;;
27412;SDS011;14871;52.702;5.230;2023-06-10T02:05:23;12.05;;;6.18;;
27412;SDS011;14871;52.702;5.230;2023-06-10T02:07:48;8.40;;;5.72;;
27412;SDS011;14871;52.702;5.230;2023-06-10T02:10:14;8.45;;;5.85;;
27412;SDS011;14871;52.702;5.230;2023-06-10T02:12:40;9.93;;;6.10;;
27412;SDS011;14871;52.702;5.230;2023-06-10T02:15:05;8.88;;;6.13;;
27412;SDS011;14871;52.702;5.230;2023-06-10T02:17:31;12.23;;;5.57;;
27412;SDS011;14871;52.702;5.230;2023-06-10T02:19:57;10.75;;;6.03;;
27412;SDS011;14871;52.702;5.230;2023-06-10T02:22:24;10.25;;;5.93;;
27412;SDS011;14871;52.702;5.230;2023-06-10T02:24:50;9.77;;;5.45;;
27412;SDS011;14871;52.702;5.230;2023-06-10T02:27:16;8.75;;;5.38;;
27412;SDS011;14871;52.702;5.230;2023-06-10T02:29:43;7.40;;;5.65;;
27412;SDS011;14871;52.702;5.230;2023-06-10T02:32:09;10.02;;;6.50;;
27412;SDS011;14871;52.702;5.230;2023-06-10T02:34:35;12.85;;;6.97;;
27412;SDS011;14871;52.702;5.230;2023-06-10T02:37:01;11.20;;;6.70;;
27412;SDS011;14871;52.702;5.230;2023-06-10T02:39:27;13.30;;;6.35;;
27412;SDS011;14871;52.702;5.230;2023-06-10T02:41:53;9.45;;;6.50;;
27412;SDS011;14871;52.702;5.230;2023-06-10T02:44:19;12.30;;;6.82;;
27412;SDS011;14871;52.702;5.230;2023-06-10T02:46:45;12.93;;;6.38;;
27412;SDS011;14871;52.702;5.230;2023-06-10T02:49:11;12.63;;;6.63;;
27412;SDS011;14871;52.702;5.230;2023-06-10T02:51:37;10.77;;;6.57;;
27412;SDS011;14871;52.702;5.230;2023-06-10T02:54:03;9.38;;;6.55;;
27412;SDS011;14871;52.702;5.230;2023-06-10T02:56:29;11.50;;;6.82;;
27412;SDS011;14871;52.702;5.230;2023-06-10T02:58:56;10.90;;;6.40;;
27412;SDS011;14871;52.702;5.230;2023-06-10T03:01:22;12.40;;;6.45;;
27412;SDS011;14871;52.702;5.230;2023-06-10T03:03:48;10.90;;;7.22;;
27412;SDS011;14871;52.702;5.230;2023-06-10T03:06:15;11.77;;;6.80;;
27412;SDS011;14871;52.702;5.230;2023-06-10T03:08:41;11.98;;;6.70;;
27412;SDS011;14871;52.702;5.230;2023-06-10T03:11:07;10.88;;;6.43;;
27412;SDS011;14871;52.702;5.230;2023-06-10T03:13:33;10.30;;;6.97;;
27412;SDS011;14871;52.702;5.230;2023-06-10T03:15:58;13.38;;;7.28;;
27412;SDS011;14871;52.702;5.230;2023-06-10T03:18:25;11.05;;;7.13;;
27412;SDS011;14871;52.702;5.230;2023-06-10T03:20:52;11.93;;;6.75;;
27412;SDS011;14871;52.702;5.230;2023-06-10T03:23:18;11.55;;;6.75;;
27412;SDS011;14871;52.702;5.230;2023-06-10T03:25:44;10.40;;;7.18;;
27412;SDS011;14871;52.702;5.230;2023-06-10T03:28:10;9.98;;;6.75;;
27412;SDS011;14871;52.702;5.230;2023-06-10T03:30:36;10.43;;;6.85;;
27412;SDS011;14871;52.702;5.230;2023-06-10T03:33:02;10.93;;;6.60;;
27412;SDS011;14871;52.702;5.230;2023-06-10T03:35:27;9.32;;;6.95;;
27412;SDS011;14871;52.702;5.230;2023-06-10T03:37:54;10.98;;;6.93;;
27412;SDS011;14871;52.702;5.230;2023-06-10T03:40:20;11.45;;;6.95;;
27412;SDS011;14871;52.702;5.230;2023-06-10T03:42:45;10.52;;;6.82;;
27412;SDS011;14871;52.702;5.230;2023-06-10T03:45:11;10.90;;;6.63;;
27412;SDS011;14871;52.702;5.230;2023-06-10T03:47:37;13.50;;;7.72;;
27412;SDS011;14871;52.702;5.230;2023-06-10T03:50:03;11.63;;;7.10;;
27412;SDS011;14871;52.702;5.230;2023-06-10T03:52:30;12.82;;;7.18;;
27412;SDS011;14871;52.702;5.230;2023-06-10T03:54:55;12.15;;;6.95;;
27412;SDS011;14871;52.702;5.230;2023-06-10T03:57:21;10.63;;;6.55;;
27412;SDS011;14871;52.702;5.230;2023-06-10T03:59:47;10.98;;;6.88;;
27412;SDS011;14871;52.702;5.230;2023-06-10T04:02:13;11.80;;;6.78;;
27412;SDS011;14871;52.702;5.230;2023-06-10T04:04:38;11.25;;;7.45;;
27412;SDS011;14871;52.702;5.230;2023-06-10T04:07:04;10.80;;;7.00;;
27412;SDS011;14871;52.702;5.230;2023-06-10T04:09:30;15.20;;;6.80;;
27412;SDS011;14871;52.702;5.230;2023-06-10T04:11:56;11.15;;;7.05;;
27412;SDS011;14871;52.702;5.230;2023-06-10T04:14:22;10.43;;;6.57;;
27412;SDS011;14871;52.702;5.230;2023-06-10T04:16:48;13.18;;;7.70;;
27412;SDS011;14871;52.702;5.230;2023-06-10T04:19:15;10.88;;;7.15;;
27412;SDS011;14871;52.702;5.230;2023-06-10T04:21:41;8.98;;;6.93;;
27412;SDS011;14871;52.702;5.230;2023-06-10T04:24:07;12.60;;;7.18;;
27412;SDS011;14871;52.702;5.230;2023-06-10T04:26:34;12.43;;;7.50;;
27412;SDS011;14871;52.702;5.230;2023-06-10T04:29:00;10.77;;;6.95;;
27412;SDS011;14871;52.702;5.230;2023-06-10T04:31:26;14.20;;;7.20;;
27412;SDS011;14871;52.702;5.230;2023-06-10T04:33:52;11.07;;;6.85;;
27412;SDS011;14871;52.702;5.230;2023-06-10T04:36:18;15.23;;;7.13;;
27412;SDS011;14871;52.702;5.230;2023-06-10T04:38:44;10.32;;;7.60;;
27412;SDS011;14871;52.702;5.230;2023-06-10T04:41:10;12.75;;;7.20;;
27412;SDS011;14871;52.702;5.230;2023-06-10T04:43:36;10.88;;;6.65;;
27412;SDS011;14871;52.702;5.230;2023-06-10T04:46:02;11.88;;;6.90;;
27412;SDS011;14871;52.702;5.230;2023-06-10T04:48:27;12.07;;;7.50;;
27412;SDS011;14871;52.702;5.230;2023-06-10T04:50:53;12.70;;;6.90;;
27412;SDS011;14871;52.702;5.230;2023-06-10T04:53:18;12.48;;;6.90;;
27412;SDS011;14871;52.702;5.230;2023-06-10T04:55:45;11.45;;;7.50;;
27412;SDS011;14871;52.702;5.230;2023-06-10T04:58:11;15.13;;;7.43;;
27412;SDS011;14871;52.702;5.230;2023-06-10T05:00:37;12.63;;;7.75;;
27412;SDS011;14871;52.702;5.230;2023-06-10T05:03:02;15.35;;;6.80;;
27412;SDS011;14871;52.702;5.230;2023-06-10T05:05:28;12.65;;;6.88;;
27412;SDS011;14871;52.702;5.230;2023-06-10T05:07:53;8.63;;;6.78;;
27412;SDS011;14871;52.702;5.230;2023-06-10T05:10:19;11.98;;;7.00;;
27412;SDS011;14871;52.702;5.230;2023-06-10T05:12:45;14.45;;;7.78;;
27412;SDS011;14871;52.702;5.230;2023-06-10T05:15:11;13.93;;;6.72;;
27412;SDS011;14871;52.702;5.230;2023-06-10T05:17:36;11.43;;;6.72;;
27412;SDS011;14871;52.702;5.230;2023-06-10T05:20:02;9.38;;;6.93;;
27412;SDS011;14871;52.702;5.230;2023-06-10T05:22:28;11.50;;;6.90;;
27412;SDS011;14871;52.702;5.230;2023-06-10T05:24:54;13.68;;;6.75;;
27412;SDS011;14871;52.702;5.230;2023-06-10T05:27:20;11.48;;;6.90;;
27412;SDS011;14871;52.702;5.230;2023-06-10T05:29:47;10.85;;;7.05;;
27412;SDS011;14871;52.702;5.230;2023-06-10T05:32:12;9.10;;;6.82;;
27412;SDS011;14871;52.702;5.230;2023-06-10T05:34:38;12.15;;;6.50;;
27412;SDS011;14871;52.702;5.230;2023-06-10T05:37:04;12.93;;;6.97;;
27412;SDS011;14871;52.702;5.230;2023-06-10T05:39:30;12.23;;;6.15;;
27412;SDS011;14871;52.702;5.230;2023-06-10T05:41:55;10.52;;;6.40;;
27412;SDS011;14871;52.702;5.230;2023-06-10T05:44:23;11.82;;;6.43;;
27412;SDS011;14871;52.702;5.230;2023-06-10T05:46:49;12.50;;;7.53;;
27412;SDS011;14871;52.702;5.230;2023-06-10T05:49:15;9.65;;;5.70;;
27412;SDS011;14871;52.702;5.230;2023-06-10T05:51:41;12.73;;;6.63;;
27412;SDS011;14871;52.702;5.230;2023-06-10T05:54:07;11.25;;;6.15;;
27412;SDS011;14871;52.702;5.230;2023-06-10T05:56:32;9.68;;;7.05;;
27412;SDS011;14871;52.702;5.230;2023-06-10T05:58:58;10.25;;;6.10;;
27412;SDS011;14871;52.702;5.230;2023-06-10T06:01:24;11.07;;;6.72;;
27412;SDS011;14871;52.702;5.230;2023-06-10T06:03:49;12.93;;;6.78;;
27412;SDS011;14871;52.702;5.230;2023-06-10T06:06:15;9.38;;;6.30;;
27412;SDS011;14871;52.702;5.230;2023-06-10T06:08:41;12.23;;;7.03;;
27412;SDS011;14871;52.702;5.230;2023-06-10T06:11:07;11.15;;;6.80;;
27412;SDS011;14871;52.702;5.230;2023-06-10T06:13:32;10.93;;;6.70;;
27412;SDS011;14871;52.702;5.230;2023-06-10T06:15:58;10.23;;;7.32;;
27412;SDS011;14871;52.702;5.230;2023-06-10T06:18:23;15.38;;;7.40;;
27412;SDS011;14871;52.702;5.230;2023-06-10T06:20:49;10.88;;;7.07;;
27412;SDS011;14871;52.702;5.230;2023-06-10T06:23:15;11.50;;;6.93;;
27412;SDS011;14871;52.702;5.230;2023-06-10T06:25:40;9.77;;;7.25;;
27412;SDS011;14871;52.702;5.230;2023-06-10T06:28:06;12.88;;;6.38;;
27412;SDS011;14871;52.702;5.230;2023-06-10T06:30:33;12.65;;;7.25;;
27412;SDS011;14871;52.702;5.230;2023-06-10T06:33:00;12.00;;;7.70;;
27412;SDS011;14871;52.702;5.230;2023-06-10T06:35:25;12.00;;;6.82;;
27412;SDS011;14871;52.702;5.230;2023-06-10T06:37:51;10.48;;;6.50;;
27412;SDS011;14871;52.702;5.230;2023-06-10T06:40:17;10.45;;;6.28;;
27412;SDS011;14871;52.702;5.230;2023-06-10T06:42:42;16.13;;;6.65;;
27412;SDS011;14871;52.702;5.230;2023-06-10T06:45:08;12.32;;;6.85;;
27412;SDS011;14871;52.702;5.230;2023-06-10T06:47:34;10.30;;;6.35;;
27412;SDS011;14871;52.702;5.230;2023-06-10T06:50:00;11.05;;;6.70;;
27412;SDS011;14871;52.702;5.230;2023-06-10T06:52:25;19.02;;;6.97;;
27412;SDS011;14871;52.702;5.230;2023-06-10T06:54:51;14.48;;;6.78;;
27412;SDS011;14871;52.702;5.230;2023-06-10T06:57:16;14.32;;;6.47;;
27412;SDS011;14871;52.702;5.230;2023-06-10T06:59:42;11.38;;;7.22;;
27412;SDS011;14871;52.702;5.230;2023-06-10T07:02:08;11.52;;;6.53;;
27412;SDS011;14871;52.702;5.230;2023-06-10T07:04:34;13.45;;;6.82;;
27412;SDS011;14871;52.702;5.230;2023-06-10T07:07:00;9.15;;;6.80;;
27412;SDS011;14871;52.702;5.230;2023-06-10T07:09:25;10.05;;;6.45;;
27412;SDS011;14871;52.702;5.230;2023-06-10T07:11:51;12.60;;;6.85;;
27412;SDS011;14871;52.702;5.230;2023-06-10T07:14:16;10.65;;;6.07;;
27412;SDS011;14871;52.702;5.230;2023-06-10T07:16:42;11.60;;;6.57;;
27412;SDS011;14871;52.702;5.230;2023-06-10T07:19:10;10.52;;;6.55;;
27412;SDS011;14871;52.702;5.230;2023-06-10T07:21:35;10.70;;;6.65;;
27412;SDS011;14871;52.702;5.230;2023-06-10T07:24:01;11.02;;;5.95;;
27412;SDS011;14871;52.702;5.230;2023-06-10T07:26:27;12.50;;;6.32;;
27412;SDS011;14871;52.702;5.230;2023-06-10T07:28:52;11.00;;;6.07;;
27412;SDS011;14871;52.702;5.230;2023-06-10T07:31:18;10.05;;;6.63;;
27412;SDS011;14871;52.702;5.230;2023-06-10T07:33:44;10.18;;;5.80;;
27412;SDS011;14871;52.702;5.230;2023-06-10T07:36:09;9.70;;;6.35;;
27412;SDS011;14871;52.702;5.230;2023-06-10T07:38:35;11.65;;;6.50;;
27412;SDS011;14871;52.702;5.230;2023-06-10T07:41:01;12.38;;;7.03;;
27412;SDS011;14871;52.702;5.230;2023-06-10T07:43:27;13.48;;;6.20;;
27412;SDS011;14871;52.702;5.230;2023-06-10T07:45:52;9.93;;;6.05;;
27412;SDS011;14871;52.702;5.230;2023-06-10T07:48:18;13.55;;;6.25;;
27412;SDS011;14871;52.702;5.230;2023-06-10T07:50:44;9.63;;;5.93;;
27412;SDS011;14871;52.702;5.230;2023-06-10T07:53:09;10.38;;;5.95;;
27412;SDS011;14871;52.702;5.230;2023-06-10T07:55:35;10.50;;;5.80;;
27412;SDS011;14871;52.702;5.230;2023-06-10T07:58:01;8.10;;;5.63;;
27412;SDS011;14871;52.702;5.230;2023-06-10T08:00:26;9.38;;;6.07;;
27412;SDS011;14871;52.702;5.230;2023-06-10T08:02:52;9.20;;;5.40;;
27412;SDS011;14871;52.702;5.230;2023-06-10T08:05:18;8.18;;;6.30;;
27412;SDS011;14871;52.702;5.230;2023-06-10T08:07:44;7.70;;;5.57;;
27412;SDS011;14871;52.702;5.230;2023-06-10T08:10:10;10.90;;;5.97;;
27412;SDS011;14871;52.702;5.230;2023-06-10T08:12:36;12.45;;;6.22;;
27412;SDS011;14871;52.702;5.230;2023-06-10T08:15:02;11.30;;;6.10;;
27412;SDS011;14871;52.702;5.230;2023-06-10T08:17:31;10.60;;;5.82;;
27412;SDS011;14871;52.702;5.230;2023-06-10T08:19:56;11.25;;;5.45;;
27412;SDS011;14871;52.702;5.230;2023-06-10T08:22:22;8.40;;;5.32;;
27412;SDS011;14871;52.702;5.230;2023-06-10T08:24:48;8.50;;;5.60;;
27412;SDS011;14871;52.702;5.230;2023-06-10T08:27:13;8.57;;;5.38;;
27412;SDS011;14871;52.702;5.230;2023-06-10T08:29:39;10.27;;;5.85;;
27412;SDS011;14871;52.702;5.230;2023-06-10T08:32:05;7.80;;;5.40;;
27412;SDS011;14871;52.702;5.230;2023-06-10T08:34:34;8.02;;;5.55;;
27412;SDS011;14871;52.702;5.230;2023-06-10T08:37:01;11.48;;;5.28;;
27412;SDS011;14871;52.702;5.230;2023-06-10T08:39:27;7.18;;;4.72;;
27412;SDS011;14871;52.702;5.230;2023-06-10T08:42:00;10.57;;;5.40;;
27412;SDS011;14871;52.702;5.230;2023-06-10T08:44:29;9.60;;;5.53;;
27412;SDS011;14871;52.702;5.230;2023-06-10T08:46:59;7.50;;;5.50;;
27412;SDS011;14871;52.702;5.230;2023-06-10T08:49:26;10.13;;;5.43;;
27412;SDS011;14871;52.702;5.230;2023-06-10T08:51:58;9.70;;;5.63;;
27412;SDS011;14871;52.702;5.230;2023-06-10T08:54:27;10.18;;;5.63;;
27412;SDS011;14871;52.702;5.230;2023-06-10T08:56:57;9.30;;;5.28;;
27412;SDS011;14871;52.702;5.230;2023-06-10T08:59:27;9.98;;;5.57;;
27412;SDS011;14871;52.702;5.230;2023-06-10T09:01:53;8.35;;;5.38;;
27412;SDS011;14871;52.702;5.230;2023-06-10T09:04:19;8.88;;;6.07;;
27412;SDS011;14871;52.702;5.230;2023-06-10T09:06:45;7.65;;;5.40;;
27412;SDS011;14871;52.702;5.230;2023-06-10T09:09:14;12.65;;;5.75;;
27412;SDS011;14871;52.702;5.230;2023-06-10T09:11:43;10.68;;;5.78;;
27412;SDS011;14871;52.702;5.230;2023-06-10T09:14:09;9.25;;;5.10;;
27412;SDS011;14871;52.702;5.230;2023-06-10T09:16:35;7.78;;;5.38;;
27412;SDS011;14871;52.702;5.230;2023-06-10T09:19:01;11.18;;;5.15;;
27412;SDS011;14871;52.702;5.230;2023-06-10T09:24:08;10.45;;;5.20;;
27412;SDS011;14871;52.702;5.230;2023-06-10T09:29:51;8.43;;;4.65;;
27412;SDS011;14871;52.702;5.230;2023-06-10T09:32:18;8.05;;;4.95;;
27412;SDS011;14871;52.702;5.230;2023-06-10T09:34:44;7.35;;;5.10;;
27412;SDS011;14871;52.702;5.230;2023-06-10T09:37:11;7.90;;;5.00;;
27412;SDS011;14871;52.702;5.230;2023-06-10T09:39:38;10.13;;;4.88;;
27412;SDS011;14871;52.702;5.230;2023-06-10T09:42:17;8.80;;;4.85;;
27412;SDS011;14871;52.702;5.230;2023-06-10T09:44:48;8.40;;;4.65;;
27412;SDS011;14871;52.702;5.230;2023-06-10T09:47:25;6.50;;;4.32;;
27412;SDS011;14871;52.702;5.230;2023-06-10T09:49:50;9.55;;;4.70;;
27412;SDS011;14871;52.702;5.230;2023-06-10T09:52:25;8.98;;;4.45;;
27412;SDS011;14871;52.702;5.230;2023-06-10T09:54:52;8.55;;;4.72;;
27412;SDS011;14871;52.702;5.230;2023-06-10T09:57:21;7.72;;;4.35;;
27412;SDS011;14871;52.702;5.230;2023-06-10T09:59:47;7.57;;;4.88;;
27412;SDS011;14871;52.702;5.230;2023-06-10T10:02:17;7.68;;;4.65;;
27412;SDS011;14871;52.702;5.230;2023-06-10T10:04:43;7.65;;;4.55;;
27412;SDS011;14871;52.702;5.230;2023-06-10T10:07:09;11.73;;;4.50;;
27412;SDS011;14871;52.702;5.230;2023-06-10T10:09:39;7.32;;;4.50;;
27412;SDS011;14871;52.702;5.230;2023-06-10T10:12:08;6.53;;;4.30;;
27412;SDS011;14871;52.702;5.230;2023-06-10T10:14:36;9.65;;;4.53;;
27412;SDS011;14871;52.702;5.230;2023-06-10T10:17:04;7.03;;;4.30;;
27412;SDS011;14871;52.702;5.230;2023-06-10T10:19:32;12.65;;;4.32;;
27412;SDS011;14871;52.702;5.230;2023-06-10T10:22:11;8.25;;;3.85;;
27412;SDS011;14871;52.702;5.230;2023-06-10T10:24:50;6.72;;;4.60;;
27412;SDS011;14871;52.702;5.230;2023-06-10T10:27:26;5.60;;;3.65;;
27412;SDS011;14871;52.702;5.230;2023-06-10T10:29:53;8.30;;;4.50;;
27412;SDS011;14871;52.702;5.230;2023-06-10T10:32:29;6.68;;;4.63;;
27412;SDS011;14871;52.702;5.230;2023-06-10T10:35:10;6.70;;;4.40;;
27412;SDS011;14871;52.702;5.230;2023-06-10T10:37:40;7.72;;;4.75;;
27412;SDS011;14871;52.702;5.230;2023-06-10T10:40:06;7.00;;;4.38;;
27412;SDS011;14871;52.702;5.230;2023-06-10T10:42:33;8.52;;;4.55;;
27412;SDS011;14871;52.702;5.230;2023-06-10T10:45:00;9.07;;;4.30;;
27412;SDS011;14871;52.702;5.230;2023-06-10T10:47:27;6.22;;;4.47;;
27412;SDS011;14871;52.702;5.230;2023-06-10T10:49:56;6.65;;;4.60;;
27412;SDS011;14871;52.702;5.230;2023-06-10T10:52:25;6.15;;;4.20;;
27412;SDS011;14871;52.702;5.230;2023-06-10T10:54:52;8.80;;;4.25;;
27412;SDS011;14871;52.702;5.230;2023-06-10T10:57:19;6.65;;;4.72;;
27412;SDS011;14871;52.702;5.230;2023-06-10T10:59:51;8.23;;;4.97;;
27412;SDS011;14871;52.702;5.230;2023-06-10T11:05:09;7.95;;;4.80;;
27412;SDS011;14871;52.702;5.230;2023-06-10T11:07:36;8.07;;;5.35;;
27412;SDS011;14871;52.702;5.230;2023-06-10T11:12:40;8.13;;;4.90;;
27412;SDS011;14871;52.702;5.230;2023-06-10T11:15:06;7.95;;;5.40;;
27412;SDS011;14871;52.702;5.230;2023-06-10T11:17:32;8.70;;;4.50;;
27412;SDS011;14871;52.702;5.230;2023-06-10T11:19:58;6.80;;;5.03;;
27412;SDS011;14871;52.702;5.230;2023-06-10T11:22:24;8.15;;;4.30;;
27412;SDS011;14871;52.702;5.230;2023-06-10T11:24:50;9.50;;;5.07;;
27412;SDS011;14871;52.702;5.230;2023-06-10T11:27:16;8.27;;;4.55;;
27412;SDS011;14871;52.702;5.230;2023-06-10T11:32:31;7.15;;;4.65;;
27412;SDS011;14871;52.702;5.230;2023-06-10T11:34:58;6.85;;;4.50;;
27412;SDS011;14871;52.702;5.230;2023-06-10T11:37:24;7.35;;;5.32;;
27412;SDS011;14871;52.702;5.230;2023-06-10T11:39:53;8.30;;;4.63;;
27412;SDS011;14871;52.702;5.230;2023-06-10T11:42:19;8.43;;;4.65;;
27412;SDS011;14871;52.702;5.230;2023-06-10T11:44:49;7.80;;;4.68;;
27412;SDS011;14871;52.702;5.230;2023-06-10T11:47:16;7.65;;;4.53;;
27412;SDS011;14871;52.702;5.230;2023-06-10T11:49:42;8.00;;;5.18;;
27412;SDS011;14871;52.702;5.230;2023-06-10T11:52:08;6.38;;;4.25;;
27412;SDS011;14871;52.702;5.230;2023-06-10T11:54:34;9.07;;;4.68;;
27412;SDS011;14871;52.702;5.230;2023-06-10T11:57:00;7.10;;;4.38;;
27412;SDS011;14871;52.702;5.230;2023-06-10T11:59:29;5.70;;;4.35;;
27412;SDS011;14871;52.702;5.230;2023-06-10T12:01:55;8.45;;;4.63;;
27412;SDS011;14871;52.702;5.230;2023-06-10T12:04:21;9.73;;;5.13;;
27412;SDS011;14871;52.702;5.230;2023-06-10T12:06:47;8.32;;;4.68;;
27412;SDS011;14871;52.702;5.230;2023-06-10T12:09:27;6.97;;;4.20;;
27412;SDS011;14871;52.702;5.230;2023-06-10T12:11:58;8.15;;;4.40;;
27412;SDS011;14871;52.702;5.230;2023-06-10T12:17:35;10.98;;;4.88;;
27412;SDS011;14871;52.702;5.230;2023-06-10T12:20:03;8.18;;;5.05;;
27412;SDS011;14871;52.702;5.230;2023-06-10T12:22:37;7.47;;;4.60;;
27412;SDS011;14871;52.702;5.230;2023-06-10T12:25:12;15.43;;;6.07;;
27412;SDS011;14871;52.702;5.230;2023-06-10T12:27:41;7.60;;;4.80;;
27412;SDS011;14871;52.702;5.230;2023-06-10T12:30:20;9.27;;;5.18;;
27412;SDS011;14871;52.702;5.230;2023-06-10T12:32:46;12.32;;;4.80;;
27412;SDS011;14871;52.702;5.230;2023-06-10T12:35:15;6.75;;;3.95;;
27412;SDS011;14871;52.702;5.230;2023-06-10T12:37:43;7.20;;;4.53;;
27412;SDS011;14871;52.702;5.230;2023-06-10T12:40:31;8.10;;;4.20;;
27412;SDS011;14871;52.702;5.230;2023-06-10T12:42:58;7.60;;;4.72;;
27412;SDS011;14871;52.702;5.230;2023-06-10T12:45:34;7.10;;;4.10;;
27412;SDS011;14871;52.702;5.230;2023-06-10T12:48:19;6.65;;;4.35;;
27412;SDS011;14871;52.702;5.230;2023-06-10T12:50:55;8.20;;;4.72;;
27412;SDS011;14871;52.702;5.230;2023-06-10T12:53:23;5.97;;;3.97;;
27412;SDS011;14871;52.702;5.230;2023-06-10T12:55:49;6.43;;;4.65;;
27412;SDS011;14871;52.702;5.230;2023-06-10T12:58:15;8.50;;;4.50;;
27412;SDS011;14871;52.702;5.230;2023-06-10T13:00:41;5.45;;;3.97;;
27412;SDS011;14871;52.702;5.230;2023-06-10T13:03:08;7.05;;;4.05;;
27412;SDS011;14871;52.702;5.230;2023-06-10T13:05:37;7.25;;;4.32;;
27412;SDS011;14871;52.702;5.230;2023-06-10T13:08:04;6.20;;;4.43;;
27412;SDS011;14871;52.702;5.230;2023-06-10T13:10:35;5.15;;;4.45;;
27412;SDS011;14871;52.702;5.230;2023-06-10T13:13:01;9.43;;;4.63;;
27412;SDS011;14871;52.702;5.230;2023-06-10T13:15:30;5.25;;;4.15;;
27412;SDS011;14871;52.702;5.230;2023-06-10T13:17:57;6.55;;;3.95;;
27412;SDS011;14871;52.702;5.230;2023-06-10T13:20:23;7.25;;;4.20;;
27412;SDS011;14871;52.702;5.230;2023-06-10T13:22:49;5.57;;;4.45;;
27412;SDS011;14871;52.702;5.230;2023-06-10T13:25:15;7.00;;;4.20;;
27412;SDS011;14871;52.702;5.230;2023-06-10T13:27:41;4.95;;;4.10;;
27412;SDS011;14871;52.702;5.230;2023-06-10T13:30:07;6.50;;;4.47;;
27412;SDS011;14871;52.702;5.230;2023-06-10T13:32:37;6.97;;;4.18;;
27412;SDS011;14871;52.702;5.230;2023-06-10T13:35:03;6.30;;;4.03;;
27412;SDS011;14871;52.702;5.230;2023-06-10T13:37:30;5.57;;;4.20;;
27412;SDS011;14871;52.702;5.230;2023-06-10T13:39:55;6.43;;;4.32;;
27412;SDS011;14871;52.702;5.230;2023-06-10T13:42:21;6.00;;;4.57;;
27412;SDS011;14871;52.702;5.230;2023-06-10T13:44:47;4.43;;;3.80;;
27412;SDS011;14871;52.702;5.230;2023-06-10T13:47:14;6.68;;;4.07;;
27412;SDS011;14871;52.702;5.230;2023-06-10T13:49:40;5.38;;;4.13;;
27412;SDS011;14871;52.702;5.230;2023-06-10T13:52:06;7.28;;;3.85;;
27412;SDS011;14871;52.702;5.230;2023-06-10T13:54:32;6.03;;;3.92;;
27412;SDS011;14871;52.702;5.230;2023-06-10T13:57:00;6.20;;;4.10;;
27412;SDS011;14871;52.702;5.230;2023-06-10T13:59:27;5.82;;;3.75;;
27412;SDS011;14871;52.702;5.230;2023-06-10T14:01:52;5.45;;;3.47;;
27412;SDS011;14871;52.702;5.230;2023-06-10T14:04:18;6.47;;;3.55;;
27412;SDS011;14871;52.702;5.230;2023-06-10T14:06:44;6.07;;;3.92;;
27412;SDS011;14871;52.702;5.230;2023-06-10T14:09:10;6.38;;;3.75;;
27412;SDS011;14871;52.702;5.230;2023-06-10T14:11:38;6.10;;;3.53;;
27412;SDS011;14871;52.702;5.230;2023-06-10T14:14:04;5.80;;;3.60;;
27412;SDS011;14871;52.702;5.230;2023-06-10T14:16:30;4.95;;;3.28;;
27412;SDS011;14871;52.702;5.230;2023-06-10T14:18:56;4.47;;;3.70;;
27412;SDS011;14871;52.702;5.230;2023-06-10T14:21:21;7.63;;;3.72;;
27412;SDS011;14871;52.702;5.230;2023-06-10T14:23:47;5.13;;;3.60;;
27412;SDS011;14871;52.702;5.230;2023-06-10T14:26:14;7.43;;;3.88;;
27412;SDS011;14871;52.702;5.230;2023-06-10T14:28:40;3.75;;;3.15;;
27412;SDS011;14871;52.702;5.230;2023-06-10T14:31:05;5.32;;;3.15;;
27412;SDS011;14871;52.702;5.230;2023-06-10T14:33:32;7.35;;;3.60;;
27412;SDS011;14871;52.702;5.230;2023-06-10T14:35:58;5.53;;;3.53;;
27412;SDS011;14871;52.702;5.230;2023-06-10T14:38:24;5.93;;;3.22;;
27412;SDS011;14871;52.702;5.230;2023-06-10T14:40:49;4.05;;;2.92;;
27412;SDS011;14871;52.702;5.230;2023-06-10T14:43:15;5.40;;;3.00;;
27412;SDS011;14871;52.702;5.230;2023-06-10T14:45:41;3.78;;;3.15;;
27412;SDS011;14871;52.702;5.230;2023-06-10T14:48:07;3.90;;;3.30;;
27412;SDS011;14871;52.702;5.230;2023-06-10T14:50:34;4.82;;;3.42;;
27412;SDS011;14871;52.702;5.230;2023-06-10T14:53:00;4.70;;;3.13;;
27412;SDS011;14871;52.702;5.230;2023-06-10T14:55:26;7.22;;;3.05;;
27412;SDS011;14871;52.702;5.230;2023-06-10T14:57:51;3.85;;;3.20;;
27412;SDS011;14871;52.702;5.230;2023-06-10T15:00:17;4.47;;;3.10;;
27412;SDS011;14871;52.702;5.230;2023-06-10T15:02:48;4.53;;;2.88;;